Time;durP1;ratioP1;P1;durP2;ratioP2;P2;SDS_P1;SDS_P2;PMS_P1;PMS_P2;Temp;Humidity;BMP_temperature;BMP_pressure;BME280_temperature;BME280_humidity;BME280_pressure;Samples;Min_cycle;Max_cycle;Signal;HPM_P1;HPM_P2
2023/09/13 00:01:57;;;;;;;7.20;3.00;;;;;;;21.85;60.04;99708.00;5075115;28;20207;-68
2023/09/13 00:04:24;;;;;;;3.23;3.00;;;;;;;21.86;59.64;99703.41;5074753;28;20188;-68
2023/09/13 00:06:51;;;;;;;3.70;3.13;;;;;;;21.90;59.61;99705.34;5074548;28;20193;-69
2023/09/13 00:09:19;;;;;;;7.80;3.17;;;;;;;21.95;59.16;99713.47;5074642;28;20227;-69
2023/09/13 00:11:46;;;;;;;3.23;3.03;;;;;;;22.02;58.77;99719.47;5073929;28;20192;-68
2023/09/13 00:14:13;;;;;;;3.90;3.10;;;;;;;22.09;58.32;99714.59;5074549;28;20188;-68
2023/09/13 00:16:40;;;;;;;3.03;2.77;;;;;;;22.10;58.04;99721.66;5074407;28;20253;-68
2023/09/13 00:19:06;;;;;;;3.63;3.03;;;;;;;22.14;58.11;99722.75;5074809;28;20247;-67
2023/09/13 00:21:33;;;;;;;4.00;2.90;;;;;;;22.14;58.26;99722.75;5074526;28;20189;-68
2023/09/13 00:24:00;;;;;;;5.67;2.73;;;;;;;22.11;58.69;99723.28;5074003;28;20242;-68
2023/09/13 00:26:28;;;;;;;3.43;3.13;;;;;;;22.00;59.05;99721.59;5074276;28;20218;-68
2023/09/13 00:28:55;;;;;;;6.60;3.27;;;;;;;21.81;60.16;99717.72;5074586;28;20287;-68
2023/09/13 00:31:21;;;;;;;10.50;3.33;;;;;;;21.73;58.86;99729.06;5074391;28;20208;-68
2023/09/13 00:33:48;;;;;;;6.53;3.97;;;;;;;21.58;59.38;99725.41;5074206;28;20192;-70
2023/09/13 00:36:15;;;;;;;4.70;3.70;;;;;;;21.41;59.45;99722.88;5073673;28;20193;-68
2023/09/13 00:38:41;;;;;;;4.77;3.80;;;;;;;21.24;60.47;99724.94;5088625;28;20725;-68
2023/09/13 00:41:08;;;;;;;4.77;3.90;;;;;;;21.17;59.91;99721.63;5094552;28;20801;-68
2023/09/13 00:43:36;;;;;;;3.93;3.57;;;;;;;21.15;59.32;99723.75;5094309;28;20613;-68
2023/09/13 00:46:05;;;;;;;5.17;4.00;;;;;;;21.14;59.58;99722.13;5090724;28;20257;-68
2023/09/13 00:48:35;;;;;;;4.47;3.47;;;;;;;21.15;59.62;99729.16;5073944;28;20671;-68
2023/09/13 00:51:03;;;;;;;4.23;3.87;;;;;;;21.13;59.31;99723.22;5074193;28;20291;-67
2023/09/13 00:53:31;;;;;;;6.50;4.00;;;;;;;20.96;59.71;99727.94;5073856;28;20218;-68
2023/09/13 00:55:58;;;;;;;4.20;3.77;;;;;;;20.89;60.46;99729.19;5072740;28;20218;-68
2023/09/13 00:58:25;;;;;;;8.37;4.47;;;;;;;20.90;60.26;99726.22;5081489;28;20196;-68
2023/09/13 01:00:54;;;;;;;8.93;4.63;;;;;;;20.92;60.04;99729.53;5094155;28;20272;-68
2023/09/13 01:03:22;;;;;;;5.87;4.93;;;;;;;20.83;60.89;99731.03;5093908;28;20572;-68
2023/09/13 01:05:52;;;;;;;7.07;4.90;;;;;;;20.74;61.13;99727.16;5093859;28;20663;-68
2023/09/13 01:08:19;;;;;;;5.93;4.70;;;;;;;20.67;61.89;99729.28;5080511;28;20670;-69
2023/09/13 01:10:46;;;;;;;6.63;4.60;;;;;;;20.55;61.94;99734.00;5084509;28;20306;-68
2023/09/13 01:13:13;;;;;;;9.53;4.47;;;;;;;20.49;62.30;99729.63;5094046;28;20628;-69
2023/09/13 01:15:47;;;;;;;9.07;4.43;;;;;;;20.46;62.73;99736.34;5093742;28;20683;-68
2023/09/13 01:18:24;;;;;;;7.70;4.97;;;;;;;20.40;62.96;99731.97;5090014;28;20639;-69
2023/09/13 01:21:10;;;;;;;8.90;4.80;;;;;;;20.39;63.22;99724.91;5089174;28;20246;-68
2023/09/13 01:24:00;;;;;;;6.90;4.47;;;;;;;20.35;63.86;99733.78;5112228;28;20191;-70
2023/09/13 01:26:51;;;;;;;6.40;4.97;;;;;;;20.34;63.43;99734.88;5108150;28;20351;-69
2023/09/13 01:29:21;;;;;;;6.03;4.77;;;;;;;20.20;63.60;99736.31;5091743;28;20183;-68
2023/09/13 01:31:48;;;;;;;6.47;4.60;;;;;;;20.06;64.37;99730.44;5091395;28;20241;-67
2023/09/13 01:34:15;;;;;;;13.40;4.50;;;;;;;20.04;65.15;99737.16;5091414;28;20252;-68
2023/09/13 01:36:42;;;;;;;6.50;5.00;;;;;;;20.03;64.98;99735.53;5087981;28;20191;-68
2023/09/13 01:39:08;;;;;;;6.00;4.70;;;;;;;20.02;64.81;99740.09;5072374;28;20279;-68
2023/09/13 01:41:40;;;;;;;16.00;5.17;;;;;;;20.06;64.59;99729.66;5072933;28;20235;-67
2023/09/13 01:44:08;;;;;;;10.90;4.37;;;;;;;20.05;64.31;99738.81;5072992;28;20184;-67
2023/09/13 01:46:42;;;;;;;7.83;4.30;;;;;;;19.99;65.02;99734.41;5073055;28;20191;-68
2023/09/13 01:49:12;;;;;;;5.67;4.53;;;;;;;20.01;64.30;99737.69;5080943;28;20671;-67
2023/09/13 01:51:39;;;;;;;4.80;4.40;;;;;;;20.08;63.70;99735.59;5093600;28;20191;-67
2023/09/13 01:54:06;;;;;;;5.93;3.80;;;;;;;20.11;63.26;99732.44;5093309;28;20187;-67
2023/09/13 01:56:33;;;;;;;3.90;3.60;;;;;;;20.16;62.81;99732.47;5092855;28;20199;-68
2023/09/13 01:59:00;;;;;;;4.30;3.83;;;;;;;20.18;62.37;99730.38;5092833;28;20663;-67
2023/09/13 02:01:27;;;;;;;10.57;4.33;;;;;;;20.12;62.61;99731.34;5080438;28;20219;-68
2023/09/13 02:03:55;;;;;;;8.70;3.77;;;;;;;20.05;62.50;99728.03;5072786;28;20192;-68
2023/09/13 02:06:22;;;;;;;7.73;4.03;;;;;;;20.11;62.42;99729.72;5072216;28;20643;-68
2023/09/13 02:08:49;;;;;;;4.63;4.23;;;;;;;20.10;62.83;99730.81;5089819;28;20572;-67
2023/09/13 02:11:15;;;;;;;4.40;4.00;;;;;;;20.17;62.50;99737.63;5092586;28;20199;-68
2023/09/13 02:13:42;;;;;;;4.60;4.07;;;;;;;20.17;62.57;99743.03;5090787;28;20217;-68
2023/09/13 02:16:08;;;;;;;4.40;4.10;;;;;;;20.17;62.24;99743.03;5092531;28;20195;-68
2023/09/13 02:18:35;;;;;;;8.43;4.10;;;;;;;20.11;62.46;99735.13;5092493;28;20248;-68
2023/09/13 02:21:04;;;;;;;7.17;4.37;;;;;;;20.03;62.33;99736.34;5092780;28;20215;-68
2023/09/13 02:23:30;;;;;;;4.50;3.80;;;;;;;19.90;63.64;99735.91;5092741;28;20277;-68
2023/09/13 02:25:58;;;;;;;7.53;4.07;;;;;;;19.85;63.51;99736.66;5078256;28;20188;-68
2023/09/13 02:28:24;;;;;;;5.87;4.17;;;;;;;19.82;63.46;99739.88;5071971;28;20196;-67
2023/09/13 02:30:51;;;;;;;4.20;3.77;;;;;;;19.73;63.78;99735.94;5072416;28;20262;-67
2023/09/13 02:33:18;;;;;;;4.53;3.90;;;;;;;19.71;64.37;99739.97;5072234;28;20241;-68
2023/09/13 02:35:47;;;;;;;7.07;4.20;;;;;;;19.74;63.79;99742.16;5071965;28;20196;-68
2023/09/13 02:38:15;;;;;;;8.10;4.27;;;;;;;19.68;64.14;99737.75;5083115;28;20274;-69
2023/09/13 02:40:41;;;;;;;6.17;4.27;;;;;;;19.59;64.53;99739.25;5092153;28;20231;-68
2023/09/13 02:43:08;;;;;;;4.67;4.23;;;;;;;19.55;64.69;99738.09;5092435;28;20300;-68
2023/09/13 02:45:36;;;;;;;5.83;4.03;;;;;;;19.54;64.26;99747.25;5091956;28;20575;-68
2023/09/13 02:48:02;;;;;;;7.33;4.30;;;;;;;19.39;65.35;99738.94;5091922;28;20224;-67
2023/09/13 02:50:29;;;;;;;5.13;3.67;;;;;;;19.40;65.21;99746.00;5081648;28;20702;-68
2023/09/13 02:52:56;;;;;;;6.90;4.07;;;;;;;19.40;66.10;99736.00;5071648;28;20196;-68
2023/09/13 02:55:24;;;;;;;7.73;4.03;;;;;;;19.31;65.53;99736.66;5071637;28;20253;-68
2023/09/13 02:57:50;;;;;;;5.03;4.33;;;;;;;19.28;66.54;99737.19;5071798;28;20190;-68
2023/09/13 03:00:17;;;;;;;4.70;3.93;;;;;;;19.34;66.01;99742.41;5071827;28;20216;-68
2023/09/13 03:02:44;;;;;;;10.40;3.77;;;;;;;19.40;65.64;99746.00;5080068;28;20192;-67
2023/09/13 03:05:11;;;;;;;10.37;3.90;;;;;;;19.34;65.68;99741.56;5091687;28;20198;-67
2023/09/13 03:07:38;;;;;;;8.03;4.20;;;;;;;19.34;65.67;99736.19;5084129;28;20214;-67
2023/09/13 03:10:05;;;;;;;4.07;3.67;;;;;;;19.32;65.72;99738.31;5071628;28;20199;-68
2023/09/13 03:12:33;;;;;;;8.43;3.70;;;;;;;19.22;66.25;99740.81;5071314;28;20672;-68
2023/09/13 03:15:00;;;;;;;6.07;4.20;;;;;;;19.11;67.15;99736.34;5071800;28;20642;-68
2023/09/13 03:17:27;;;;;;;8.90;4.30;;;;;;;19.11;66.36;99745.22;5071240;28;20733;-68
2023/09/13 03:19:53;;;;;;;4.77;4.37;;;;;;;19.18;66.59;99748.56;5081183;28;20666;-67
2023/09/13 03:22:20;;;;;;;4.87;4.10;;;;;;;19.20;66.86;99749.13;5091916;28;20684;-67
2023/09/13 03:24:47;;;;;;;9.73;4.07;;;;;;;19.30;66.35;99745.81;5089806;28;20816;-68
2023/09/13 03:27:14;;;;;;;7.97;4.60;;;;;;;19.31;66.72;99745.56;5089762;28;20195;-68
2023/09/13 03:29:42;;;;;;;7.80;4.30;;;;;;;19.40;66.69;99751.38;5082217;28;20196;-68
2023/09/13 03:32:08;;;;;;;8.80;5.30;;;;;;;19.48;66.09;99750.97;5069792;28;20774;-68
2023/09/13 03:34:35;;;;;;;11.47;4.67;;;;;;;19.46;65.98;99755.75;5070123;28;20191;-68
2023/09/13 03:37:02;;;;;;;7.57;4.50;;;;;;;19.32;67.44;99752.59;5070419;28;20230;-68
2023/09/13 03:39:29;;;;;;;7.83;5.20;;;;;;;19.20;68.46;99757.22;5087637;28;20191;-69
2023/09/13 03:41:56;;;;;;;8.53;4.70;;;;;;;19.17;67.82;99760.41;5089195;28;20318;-68
2023/09/13 03:44:23;;;;;;;10.93;4.83;;;;;;;19.16;68.77;99763.34;5090270;28;20706;-68
2023/09/13 03:46:51;;;;;;;14.23;5.10;;;;;;;19.19;68.27;99760.19;5091656;28;20195;-67
2023/09/13 03:49:18;;;;;;;9.47;4.97;;;;;;;19.18;68.09;99763.91;5091390;28;20583;-69
2023/09/13 03:51:44;;;;;;;11.90;5.77;;;;;;;19.24;68.06;99765.66;5091014;28;20270;-69
2023/09/13 03:54:11;;;;;;;7.27;5.60;;;;;;;19.30;67.40;99761.97;5091419;28;20206;-69
2023/09/13 03:56:38;;;;;;;11.90;5.87;;;;;;;19.32;67.39;99765.25;5090862;28;20246;-68
2023/09/13 03:59:04;;;;;;;9.33;5.87;;;;;;;19.27;67.36;99762.47;5091415;28;20239;-68
2023/09/13 04:01:31;;;;;;;11.73;6.03;;;;;;;19.23;68.17;99758.59;5081363;28;20811;-67
2023/09/13 04:03:59;;;;;;;7.40;5.37;;;;;;;19.25;67.35;99761.91;5071355;28;20256;-68
2023/09/13 04:06:26;;;;;;;10.53;4.97;;;;;;;19.32;68.18;99765.25;5070858;28;20196;-68
2023/09/13 04:08:53;;;;;;;8.67;5.60;;;;;;;19.35;68.06;99770.13;5089121;28;20247;-68
2023/09/13 04:11:19;;;;;;;7.13;5.40;;;;;;;19.43;67.28;99775.09;5091118;28;20670;-67
2023/09/13 04:13:46;;;;;;;15.27;5.70;;;;;;;19.48;67.32;99775.22;5089864;28;20665;-67
2023/09/13 04:16:15;;;;;;;19.13;6.57;;;;;;;19.47;67.03;99774.38;5091021;28;20198;-68
2023/09/13 04:18:42;;;;;;;17.80;6.03;;;;;;;19.46;67.46;99782.72;5091277;28;20267;-68
2023/09/13 04:21:10;;;;;;;16.87;6.60;;;;;;;19.38;67.40;99793.91;5091207;28;20283;-68
2023/09/13 04:23:36;;;;;;;20.03;5.80;;;;;;;19.44;67.81;99790.25;5076389;28;20222;-68
2023/09/13 04:26:03;;;;;;;15.70;6.50;;;;;;;19.59;66.96;99793.16;5080218;28;20229;-67
2023/09/13 04:28:30;;;;;;;16.63;6.50;;;;;;;19.58;66.98;99791.53;5090772;28;20227;-67
2023/09/13 04:30:59;;;;;;;10.00;5.87;;;;;;;19.59;67.07;99787.75;5082033;28;20234;-68
2023/09/13 04:33:47;;;;;;;8.60;5.20;;;;;;;19.73;69.01;99778.28;5074273;28;20238;-64
2023/09/13 04:36:15;;;;;;;14.77;5.80;;;;;;;20.58;66.76;99781.25;5074350;28;20271;-66
2023/09/13 04:38:42;;;;;;;8.27;4.57;;;;;;;21.30;64.75;99791.44;5074734;28;20200;-66
2023/09/13 04:41:13;;;;;;;18.27;5.23;;;;;;;22.15;59.80;99797.44;5074349;28;20688;-66
2023/09/13 04:43:40;;;;;;;14.93;4.63;;;;;;;22.87;58.44;99798.25;5093292;28;20666;-67
2023/09/13 04:46:06;;;;;;;9.20;5.03;;;;;;;23.46;54.65;99799.41;5094272;28;20241;-67
2023/09/13 04:48:33;;;;;;;18.17;5.13;;;;;;;23.65;54.55;99795.03;5094163;28;20278;-67
2023/09/13 04:51:00;;;;;;;12.87;5.57;;;;;;;24.15;51.91;99794.97;5094240;28;20246;-69
2023/09/13 04:53:28;;;;;;;6.57;5.63;;;;;;;24.19;49.87;99801.47;5091498;28;20193;-70
2023/09/13 04:55:54;;;;;;;7.90;6.10;;;;;;;24.22;50.55;99802.81;5073444;28;20199;-70
2023/09/13 04:58:21;;;;;;;14.40;5.93;;;;;;;24.70;49.57;99808.31;5072130;28;20223;-70
2023/09/13 05:00:48;;;;;;;10.90;4.83;;;;;;;24.91;49.15;99798.94;5073230;28;20222;-70
2023/09/13 05:03:15;;;;;;;13.17;5.40;;;;;;;25.29;46.84;99799.25;5073128;28;20736;-70
2023/09/13 05:05:41;;;;;;;18.90;6.30;;;;;;;25.64;46.39;99801.69;5070603;28;20966;-70
2023/09/13 05:08:08;;;;;;;10.07;4.93;;;;;;;25.79;45.47;99799.63;5083961;28;20540;-70
2023/09/13 05:10:38;;;;;;;20.00;5.23;;;;;;;25.71;45.19;99804.84;5093455;28;20655;-70
2023/09/13 05:13:05;;;;;;;5.07;3.93;;;;;;;25.82;43.20;99799.06;5093329;28;20702;-71
2023/09/13 05:15:32;;;;;;;12.97;4.83;;;;;;;25.85;43.73;99798.44;5093678;28;20299;-70
2023/09/13 05:17:58;;;;;;;5.00;4.50;;;;;;;25.66;44.19;99796.75;5093553;28;20194;-71
2023/09/13 05:20:26;;;;;;;10.13;4.50;;;;;;;25.54;45.46;99797.13;5093668;28;20245;-70
2023/09/13 05:22:53;;;;;;;5.03;4.63;;;;;;;25.44;44.75;99801.84;5099473;28;20225;-70
2023/09/13 05:25:19;;;;;;;6.63;4.77;;;;;;;25.23;45.65;99805.81;5112851;28;20190;-71
2023/09/13 05:27:47;;;;;;;10.13;4.83;;;;;;;25.52;44.45;99810.19;5113023;27;20255;-70
2023/09/13 05:30:14;;;;;;;11.20;4.57;;;;;;;25.72;45.11;99803.78;5112644;28;20643;-71
2023/09/13 05:32:41;;;;;;;11.60;4.33;;;;;;;26.30;43.55;99811.59;5113367;28;20282;-71
2023/09/13 05:35:08;;;;;;;11.37;4.73;;;;;;;26.42;42.81;99814.72;5113301;27;20195;-71
2023/09/13 05:37:35;;;;;;;10.77;4.70;;;;;;;26.50;41.93;99816.00;5113614;28;20662;-71
2023/09/13 05:40:06;;;;;;;6.10;5.10;;;;;;;26.44;42.18;99814.44;5113398;28;20666;-71
2023/09/13 05:42:33;;;;;;;5.03;4.37;;;;;;;26.49;41.63;99819.81;5113204;28;20351;-71
2023/09/13 05:45:01;;;;;;;34.73;5.97;;;;;;;26.18;42.78;99819.38;5113522;28;20202;-71
2023/09/13 05:47:29;;;;;;;29.43;6.47;;;;;;;26.33;42.05;99818.41;5113589;28;20662;-71
2023/09/13 05:49:56;;;;;;;4.50;4.03;;;;;;;26.08;42.32;99813.22;5113827;28;20191;-71
2023/09/13 05:52:22;;;;;;;4.57;4.20;;;;;;;25.98;42.60;99814.16;5113829;28;20203;-71
2023/09/13 05:54:49;;;;;;;14.93;4.90;;;;;;;26.09;42.68;99821.09;5110475;28;20256;-71
2023/09/13 05:57:16;;;;;;;10.60;4.47;;;;;;;26.08;43.42;99813.22;5093306;28;20241;-71
2023/09/13 05:59:42;;;;;;;22.27;5.10;;;;;;;26.29;43.18;99814.63;5092876;28;20202;-71
2023/09/13 06:02:10;;;;;;;5.13;4.10;;;;;;;26.99;41.04;99816.44;5092943;28;20219;-71
2023/09/13 06:04:37;;;;;;;7.63;4.70;;;;;;;27.53;39.01;99819.44;5093155;28;20256;-71
2023/09/13 06:07:04;;;;;;;8.10;4.10;;;;;;;27.93;37.93;99814.06;5093072;28;20252;-72
2023/09/13 06:09:31;;;;;;;30.73;6.27;;;;;;;28.31;36.22;99814.72;5092406;28;20258;-72
2023/09/13 06:11:58;;;;;;;7.77;4.00;;;;;;;28.52;36.70;99824.16;5092416;28;20751;-70
2023/09/13 06:14:24;;;;;;;11.40;4.67;;;;;;;28.62;36.21;99821.19;5092252;28;20226;-66
2023/09/13 06:16:51;;;;;;;12.70;3.93;;;;;;;28.76;36.28;99821.97;5092707;28;20195;-66
2023/09/13 06:19:19;;;;;;;17.93;4.83;;;;;;;29.28;35.01;99819.41;5092671;28;20195;-66
2023/09/13 06:21:47;;;;;;;15.00;4.43;;;;;;;29.67;34.13;99821.50;5092528;28;20223;-66
2023/09/13 06:24:13;;;;;;;11.53;4.47;;;;;;;30.03;33.95;99829.56;5091907;28;20195;-66
2023/09/13 06:26:40;;;;;;;6.40;4.27;;;;;;;29.85;32.82;99823.22;5092542;28;20191;-65
2023/09/13 06:29:07;;;;;;;6.47;4.20;;;;;;;29.29;34.04;99831.19;5092490;28;20191;-65
2023/09/13 06:31:34;;;;;;;7.33;4.50;;;;;;;28.92;35.62;99829.53;5092046;28;20815;-65
2023/09/13 06:34:01;;;;;;;7.03;4.30;;;;;;;28.88;36.07;99819.53;5091152;28;20275;-66
2023/09/13 06:36:29;;;;;;;8.47;4.23;;;;;;;29.23;35.38;99824.19;5090921;28;20233;-66
2023/09/13 06:38:56;;;;;;;9.53;5.03;;;;;;;29.44;35.34;99822.59;5091237;28;20195;-65
2023/09/13 06:41:22;;;;;;;10.57;4.90;;;;;;;29.87;34.91;99822.88;5090808;28;20227;-65
2023/09/13 06:43:49;;;;;;;11.73;4.87;;;;;;;29.92;35.06;99829.03;5090924;28;20191;-66
2023/09/13 06:46:16;;;;;;;5.67;4.73;;;;;;;29.69;35.14;99816.53;5091030;28;20264;-64
2023/09/13 06:48:42;;;;;;;9.33;4.40;;;;;;;29.92;35.05;99829.03;5091532;28;20381;-64
2023/09/13 06:51:09;;;;;;;7.43;3.93;;;;;;;30.14;34.20;99826.28;5091365;28;20260;-64
2023/09/13 06:53:37;;;;;;;8.50;4.13;;;;;;;30.13;34.85;99824.63;5091597;28;20191;-64
2023/09/13 06:56:04;;;;;;;18.53;6.30;;;;;;;29.75;35.28;99818.00;5091440;28;20282;-66
2023/09/13 06:58:31;;;;;;;9.97;4.70;;;;;;;29.90;35.21;99830.47;5091487;28;20854;-65
2023/09/13 07:00:58;;;;;;;10.57;4.77;;;;;;;29.36;35.93;99826.09;5091060;28;20187;-66
2023/09/13 07:03:24;;;;;;;12.67;4.33;;;;;;;29.65;35.96;99815.53;5091379;28;20254;-65
2023/09/13 07:05:51;;;;;;;11.87;4.30;;;;;;;29.82;35.90;99828.50;5091075;28;20256;-65
2023/09/13 07:08:18;;;;;;;7.10;4.63;;;;;;;29.93;35.75;99818.91;5078266;28;20226;-65
2023/09/13 07:10:46;;;;;;;8.07;4.80;;;;;;;29.78;35.85;99817.38;5077199;28;20660;-66
2023/09/13 07:13:13;;;;;;;6.03;4.23;;;;;;;29.87;35.46;99814.66;5084130;28;20265;-66
2023/09/13 07:15:40;;;;;;;13.93;5.57;;;;;;;29.41;36.18;99812.28;5082764;28;20187;-66
2023/09/13 07:18:08;;;;;;;11.83;4.70;;;;;;;29.42;36.21;99805.66;5078199;28;20267;-66
2023/09/13 07:20:35;;;;;;;9.10;4.50;;;;;;;29.39;37.05;99809.03;5070922;28;20565;-66
2023/09/13 07:23:02;;;;;;;9.87;5.03;;;;;;;29.78;36.73;99814.63;5089021;28;20596;-66
2023/09/13 07:25:29;;;;;;;11.90;4.57;;;;;;;30.15;35.72;99811.47;5090927;28;20215;-66
2023/09/13 07:27:58;;;;;;;9.37;5.10;;;;;;;30.18;35.11;99821.78;5076467;28;20199;-67
2023/09/13 07:30:25;;;;;;;7.73;4.37;;;;;;;30.27;35.48;99808.91;5072147;28;20294;-66
2023/09/13 07:32:51;;;;;;;9.50;3.57;;;;;;;30.12;35.91;99805.75;5089923;28;20206;-66
2023/09/13 07:35:20;;;;;;;10.97;4.20;;;;;;;30.41;35.61;99806.84;5090247;28;20275;-66
2023/09/13 07:37:47;;;;;;;10.97;4.27;;;;;;;30.75;34.43;99796.00;5090254;28;20187;-67
2023/09/13 07:40:13;;;;;;;13.43;4.80;;;;;;;30.87;34.58;99798.91;5090246;28;20246;-65
2023/09/13 07:42:40;;;;;;;7.83;4.13;;;;;;;30.72;34.79;99798.56;5083595;28;20223;-64
2023/09/13 07:45:09;;;;;;;16.00;4.63;;;;;;;30.58;34.93;99806.91;5071211;28;20257;-60
2023/09/13 07:47:36;;;;;;;12.03;4.60;;;;;;;30.38;35.33;99802.00;5071209;28;20275;-60
2023/09/13 07:50:03;;;;;;;6.53;4.10;;;;;;;29.66;36.33;99797.16;5071439;28;20196;-60
2023/09/13 07:52:29;;;;;;;14.83;4.07;;;;;;;29.89;35.99;99796.81;5073435;28;20249;-60
2023/09/13 07:54:56;;;;;;;10.07;3.77;;;;;;;30.37;35.79;99796.88;5079843;28;20188;-61
2023/09/13 07:57:22;;;;;;;11.83;4.40;;;;;;;30.63;35.15;99790.31;5075012;28;20253;-60
2023/09/13 07:59:49;;;;;;;17.27;5.60;;;;;;;30.98;34.41;99791.97;5079201;28;20187;-60
2023/09/13 08:02:17;;;;;;;8.23;4.07;;;;;;;31.22;33.72;99794.22;5080795;28;20243;-60
2023/09/13 08:04:44;;;;;;;5.90;3.70;;;;;;;31.45;32.96;99791.00;5081287;28;20248;-61
2023/09/13 08:07:11;;;;;;;9.17;4.40;;;;;;;31.45;33.54;99784.72;5088365;28;20212;-60
2023/09/13 08:09:37;;;;;;;11.97;4.10;;;;;;;31.57;33.06;99788.41;5074800;28;20274;-61
2023/09/13 08:12:05;;;;;;;9.87;4.67;;;;;;;31.82;32.70;99787.56;5088232;28;20203;-61
2023/09/13 08:14:31;;;;;;;30.17;5.43;;;;;;;31.52;33.20;99785.03;5086394;28;20191;-60
2023/09/13 08:16:58;;;;;;;17.03;4.87;;;;;;;31.51;33.53;99778.72;5082497;28;20196;-60
2023/09/13 08:19:26;;;;;;;10.53;3.93;;;;;;;31.49;32.69;99791.97;5083593;28;20620;-61
2023/09/13 08:21:53;;;;;;;6.60;4.00;;;;;;;31.37;32.81;99783.59;5082908;28;20272;-61
2023/09/13 08:24:19;;;;;;;10.73;4.27;;;;;;;31.21;33.30;99779.72;5082333;28;20223;-60
2023/09/13 08:26:46;;;;;;;5.53;4.17;;;;;;;30.93;33.49;99778.41;5085820;28;20237;-61
2023/09/13 08:29:13;;;;;;;6.07;4.10;;;;;;;30.86;32.89;99774.56;5081973;28;20184;-60
2023/09/13 08:31:39;;;;;;;5.47;3.73;;;;;;;30.76;32.32;99778.41;5084756;28;20237;-60
2023/09/13 08:34:06;;;;;;;9.33;4.07;;;;;;;30.73;32.73;99773.56;5093912;28;20187;-62
2023/09/13 08:36:35;;;;;;;6.43;3.67;;;;;;;30.66;33.27;99770.44;5080949;28;20679;-62
2023/09/13 08:39:01;;;;;;;5.50;4.30;;;;;;;30.69;33.49;99767.09;5092938;28;20187;-61
2023/09/13 08:41:29;;;;;;;9.63;4.00;;;;;;;31.14;34.28;99767.59;5092395;28;20280;-62
2023/09/13 08:43:57;;;;;;;4.17;3.63;;;;;;;31.50;33.30;99765.28;5092636;28;20187;-60
2023/09/13 08:46:25;;;;;;;5.97;3.53;;;;;;;31.82;32.38;99767.50;5089141;28;20202;-62
2023/09/13 08:48:52;;;;;;;6.57;3.93;;;;;;;31.92;31.89;99770.69;5094223;28;20736;-60
2023/09/13 08:51:20;;;;;;;6.33;4.03;;;;;;;31.92;31.02;99764.38;5093941;28;20255;-60
2023/09/13 08:53:51;;;;;;;8.07;3.90;;;;;;;31.86;31.04;99762.97;5092928;28;20639;-61
2023/09/13 08:56:20;;;;;;;4.30;3.33;;;;;;;31.52;31.04;99763.84;5110484;28;20277;-60
2023/09/13 08:58:46;;;;;;;8.40;3.67;;;;;;;31.60;30.80;99759.47;5096384;28;20724;-60
2023/09/13 09:01:15;;;;;;;3.43;3.13;;;;;;;31.78;31.01;99756.38;5094071;28;20191;-61
2023/09/13 09:03:44;;;;;;;6.10;3.67;;;;;;;31.87;30.78;99748.06;5093918;28;20219;-60
2023/09/13 09:06:17;;;;;;;4.27;3.87;;;;;;;32.00;30.66;99752.53;5093805;28;20188;-60
2023/09/13 09:08:45;;;;;;;4.80;3.57;;;;;;;32.15;30.00;99752.81;5094142;28;20215;-60
2023/09/13 09:11:13;;;;;;;5.63;3.10;;;;;;;32.22;30.00;99747.56;5084557;28;20196;-61
2023/09/13 09:13:42;;;;;;;10.53;3.40;;;;;;;32.28;29.77;99749.00;5089392;28;20740;-60
2023/09/13 09:16:11;;;;;;;6.00;3.33;;;;;;;32.34;29.98;99752.41;5092192;28;20683;-60
2023/09/13 09:18:39;;;;;;;4.38;3.53;;;;;;;32.46;29.86;99749.75;5093338;28;20252;-61
2023/09/13 09:21:07;;;;;;;6.23;4.10;;;;;;;32.41;30.00;99752.66;5093681;28;20200;-61
2023/09/13 09:23:37;;;;;;;8.83;3.93;;;;;;;32.25;30.05;99746.91;5097843;28;20311;-60
2023/09/13 09:26:04;;;;;;;4.83;3.63;;;;;;;31.68;30.71;99745.69;5091780;28;20200;-61
2023/09/13 09:28:34;;;;;;;10.37;3.80;;;;;;;31.33;31.34;99738.69;5085218;28;20226;-60
2023/09/13 09:31:02;;;;;;;6.23;3.70;;;;;;;31.41;31.92;99735.13;5084119;28;20206;-61
2023/09/13 09:33:29;;;;;;;8.60;3.93;;;;;;;31.62;31.25;99730.53;5076448;28;20207;-62
2023/09/13 09:35:58;;;;;;;7.77;4.23;;;;;;;31.70;31.55;99721.47;5079619;28;20264;-60
2023/09/13 09:38:27;;;;;;;6.50;4.03;;;;;;;31.84;31.50;99726.75;5080897;28;20764;-59
2023/09/13 09:40:57;;;;;;;6.33;3.73;;;;;;;31.93;29.90;99725.56;5082176;28;20706;-60
2023/09/13 09:43:23;;;;;;;8.03;3.43;;;;;;;31.95;29.98;99717.81;5080888;28;20264;-59
2023/09/13 09:45:52;;;;;;;8.00;4.03;;;;;;;31.63;30.45;99715.66;5079677;28;20241;-59
2023/09/13 09:48:20;;;;;;;4.20;3.80;;;;;;;31.31;31.16;99712.69;5087750;28;20693;-63
2023/09/13 09:50:48;;;;;;;8.33;4.33;;;;;;;31.31;31.30;99708.00;5089875;28;20241;-59
2023/09/13 09:53:17;;;;;;;8.00;4.17;;;;;;;31.57;31.34;99694.19;5085034;28;20253;-59
2023/09/13 09:55:45;;;;;;;10.23;4.50;;;;;;;31.46;31.00;99698.41;5079364;28;20290;-60
2023/09/13 09:58:11;;;;;;;7.33;4.23;;;;;;;31.04;31.73;99708.34;5092610;28;20192;-59
2023/09/13 10:00:46;;;;;;;5.70;4.67;;;;;;;31.16;32.11;99700.25;5092381;28;20259;-62
2023/09/13 10:03:17;;;;;;;8.63;4.30;;;;;;;31.45;31.96;99696.81;5090486;28;20600;-63
2023/09/13 10:05:56;;;;;;;6.23;4.27;;;;;;;31.56;31.45;99687.88;5071591;28;20207;-60
2023/09/13 10:08:40;;;;;;;8.37;3.90;;;;;;;31.83;30.25;99692.97;5088984;28;20677;-60
2023/09/13 10:11:07;;;;;;;5.20;4.27;;;;;;;31.66;29.58;99682.03;5098499;27;20200;-61
2023/09/13 10:13:35;;;;;;;5.43;4.47;;;;;;;31.74;29.47;99686.69;5090244;28;20655;-59
2023/09/13 10:16:02;;;;;;;4.53;3.63;;;;;;;31.70;29.46;99688.50;5092403;28;20622;-61
2023/09/13 10:18:36;;;;;;;4.77;3.90;;;;;;;31.52;30.38;99681.44;5088434;28;20187;-60
2023/09/13 10:21:04;;;;;;;4.30;3.93;;;;;;;31.51;29.86;99671.59;5088598;28;20238;-59
2023/09/13 10:23:40;;;;;;;4.40;4.00;;;;;;;31.37;30.90;99670.19;5090287;28;20210;-58
2023/09/13 10:26:09;;;;;;;6.20;4.10;;;;;;;31.23;31.25;99673.13;5091498;28;20270;-60
2023/09/13 10:28:39;;;;;;;7.17;4.00;;;;;;;30.81;31.98;99668.50;5089857;28;20282;-60
2023/09/13 10:31:09;;;;;;;5.67;4.63;;;;;;;31.08;31.67;99662.66;5090124;28;20590;-60
2023/09/13 10:33:42;;;;;;;9.97;4.33;;;;;;;31.38;31.41;99658.88;5090590;28;20274;-59
2023/09/13 10:36:16;;;;;;;6.67;4.17;;;;;;;31.37;30.98;99649.03;5079709;28;20245;-61
2023/09/13 10:38:49;;;;;;;5.63;4.83;;;;;;;31.51;31.68;99648.78;5075636;28;20659;-59
2023/09/13 10:41:18;;;;;;;4.87;4.17;;;;;;;31.63;31.17;99649.72;5082648;28;20223;-61
2023/09/13 10:43:48;;;;;;;6.27;4.43;;;;;;;31.73;31.26;99654.84;5080565;28;20350;-59
2023/09/13 10:46:16;;;;;;;7.40;4.10;;;;;;;31.75;30.90;99649.81;5072484;28;20190;-59
2023/09/13 10:48:46;;;;;;;4.57;4.07;;;;;;;31.95;30.98;99635.34;5091335;28;20662;-61
2023/09/13 10:51:16;;;;;;;5.57;4.13;;;;;;;31.67;30.99;99639.69;5079727;28;20277;-63
2023/09/13 10:53:45;;;;;;;9.37;4.27;;;;;;;31.79;30.97;99642.56;5089376;28;20199;-61
2023/09/13 10:56:15;;;;;;;8.90;4.70;;;;;;;31.76;31.10;99636.91;5085519;28;20224;-62
2023/09/13 10:58:45;;;;;;;10.80;4.60;;;;;;;31.79;31.70;99628.81;5081957;28;20631;-61
2023/09/13 11:01:13;;;;;;;9.70;4.87;;;;;;;31.72;31.30;99636.75;5076710;28;20196;-63
2023/09/13 11:03:41;;;;;;;10.97;4.60;;;;;;;31.83;30.86;99624.28;5076990;28;20216;-62
2023/09/13 11:06:10;;;;;;;10.70;4.73;;;;;;;31.93;30.64;99628.59;5078022;28;20184;-62
2023/09/13 11:08:37;;;;;;;12.87;4.60;;;;;;;32.01;30.39;99627.72;5086894;28;20195;-61
2023/09/13 11:11:16;;;;;;;11.97;4.67;;;;;;;32.17;30.10;99628.75;5065402;28;20740;-61
2023/09/13 11:13:44;;;;;;;13.50;4.93;;;;;;;32.28;30.54;99628.00;5080291;28;20187;-62
2023/09/13 11:16:14;;;;;;;9.70;4.53;;;;;;;32.26;29.64;99624.78;5091294;28;20195;-61
2023/09/13 11:18:48;;;;;;;4.40;4.00;;;;;;;32.38;29.72;99624.09;5083777;28;20595;-62
2023/09/13 11:21:26;;;;;;;7.50;4.17;;;;;;;32.39;29.66;99618.25;5090436;28;20275;-64
2023/09/13 11:23:54;;;;;;;8.07;4.97;;;;;;;32.40;30.17;99614.34;5088628;28;20218;-61
2023/09/13 11:26:45;;;;;;;6.70;4.67;;;;;;;32.23;29.73;99617.22;5089313;28;20191;-63
2023/09/13 11:29:23;;;;;;;5.80;4.33;;;;;;;32.38;29.82;99610.34;5070151;28;20713;-63
2023/09/13 11:32:00;;;;;;;9.43;4.97;;;;;;;32.46;29.95;99606.72;5074038;28;20183;-62
2023/09/13 11:34:27;;;;;;;6.50;5.90;;;;;;;32.54;30.03;99603.88;5090816;28;20232;-62
2023/09/13 11:37:00;;;;;;;8.37;4.77;;;;;;;32.61;29.41;99609.63;5091021;28;20245;-62